createdAt,value
2023-02-15T00:00:28.360Z,29.95
2023-02-15T00:01:28.403Z,28.65
2023-02-15T00:02:28.443Z,34.20
2023-02-15T00:03:28.584Z,31.44
2023-02-15T00:04:27.519Z,29.76
2023-02-15T00:05:28.559Z,29.74
2023-02-15T00:06:28.603Z,27.08
2023-02-15T00:07:28.653Z,27.96
2023-02-15T00:08:28.744Z,31.80
2023-02-15T00:09:28.801Z,32.47
2023-02-15T00:10:28.843Z,32.60
2023-02-15T00:11:28.867Z,29.64
2023-02-15T00:12:28.898Z,29.84
2023-02-15T00:13:28.978Z,32.49
2023-02-15T00:14:28.036Z,31.06
2023-02-15T00:15:28.087Z,33.29
2023-02-15T00:16:29.178Z,27.70
2023-02-15T00:17:29.171Z,29.12
2023-02-15T00:18:29.227Z,30.59
2023-02-15T00:19:29.270Z,28.52
2023-02-15T00:20:29.324Z,34.83
2023-02-15T00:21:29.350Z,30.79
2023-02-15T00:22:29.442Z,28.14
2023-02-15T00:23:28.464Z,32.54
2023-02-15T00:24:29.528Z,28.06
2023-02-15T00:25:29.572Z,29.28
2023-02-15T00:26:29.622Z,29.35
2023-02-15T00:27:28.731Z,27.76
2023-02-15T00:28:28.752Z,34.87
2023-02-15T00:29:28.794Z,28.05
2023-02-15T00:30:28.973Z,32.78
2023-02-15T00:31:29.104Z,30.60
2023-02-15T00:32:28.975Z,30.54
2023-02-15T00:33:30.011Z,31.17
2023-02-15T00:34:30.094Z,31.87
2023-02-15T00:35:30.159Z,29.67
2023-02-15T00:36:30.225Z,28.71
2023-02-15T00:37:30.246Z,29.22
2023-02-15T00:38:30.303Z,29.60
2023-02-15T00:39:30.355Z,27.79
2023-02-15T00:40:29.408Z,28.47
2023-02-15T00:41:29.472Z,32.79
2023-02-15T00:42:30.562Z,29.45
2023-02-15T00:43:30.593Z,34.14
2023-02-15T00:44:30.652Z,28.34
2023-02-15T00:45:30.692Z,31.22
2023-02-15T00:46:30.753Z,31.18
2023-02-15T00:47:30.776Z,28.85
2023-02-15T00:48:30.832Z,32.19
2023-02-15T00:49:30.889Z,29.66
2023-02-15T00:50:30.969Z,28.58
2023-02-15T00:51:30.992Z,32.29
2023-02-15T00:52:30.048Z,27.30
2023-02-15T00:53:31.100Z,30.91
2023-02-15T00:54:30.154Z,28.82
2023-02-15T00:55:30.211Z,29.28
2023-02-15T00:56:31.261Z,29.61
2023-02-15T00:57:31.316Z,28.54
2023-02-15T00:58:31.370Z,29.27
2023-02-15T00:59:31.441Z,31.41
2023-02-15T01:00:31.486Z,32.19
2023-02-15T01:01:31.578Z,30.97
2023-02-15T01:02:31.636Z,31.13
2023-02-15T01:03:31.669Z,30.22
2023-02-15T01:04:30.766Z,30.70
2023-02-15T01:05:31.797Z,26.94
2023-02-15T01:06:30.856Z,32.65
2023-02-15T01:07:31.900Z,30.75
2023-02-15T01:08:31.966Z,27.88
2023-02-15T01:09:31.068Z,31.69
2023-02-15T01:10:32.079Z,27.82
2023-02-15T01:11:32.129Z,29.75
2023-02-15T01:12:32.195Z,32.31
2023-02-15T01:13:32.254Z,32.08
2023-02-15T01:14:31.292Z,32.93
2023-02-15T01:15:32.387Z,28.02
2023-02-15T01:16:32.404Z,27.27
2023-02-15T01:17:31.477Z,29.42
2023-02-15T01:18:32.550Z,32.64
2023-02-15T01:19:32.542Z,30.19
2023-02-15T01:20:31.595Z,28.56
2023-02-15T01:21:31.661Z,27.49
2023-02-15T01:22:32.716Z,29.16
2023-02-15T01:23:32.773Z,31.36
2023-02-15T01:24:33.283Z,29.40
2023-02-15T01:25:31.950Z,28.20
2023-02-15T01:26:32.941Z,25.58
2023-02-15T01:27:32.032Z,27.87
2023-02-15T01:28:33.082Z,30.06
2023-02-15T01:29:33.140Z,29.43
2023-02-15T01:30:33.244Z,27.51
2023-02-15T01:31:33.333Z,30.91
2023-02-15T01:32:32.349Z,33.55
2023-02-15T01:33:33.407Z,31.98
2023-02-15T01:34:32.497Z,30.82
2023-02-15T01:35:33.541Z,31.41
2023-02-15T01:36:33.587Z,32.59
2023-02-15T01:37:33.651Z,28.52
2023-02-15T01:38:32.703Z,28.93
2023-02-15T01:39:33.799Z,30.99
2023-02-15T01:40:33.827Z,28.97
2023-02-15T01:41:32.900Z,28.02
2023-02-15T01:42:33.963Z,31.58
2023-02-15T01:43:33.010Z,31.54
2023-02-15T01:44:33.071Z,26.90
2023-02-15T01:45:34.142Z,25.00
2023-02-15T01:46:34.270Z,30.30
2023-02-15T01:47:33.266Z,29.93
2023-02-15T01:48:34.326Z,32.93
2023-02-15T01:49:34.395Z,30.58
2023-02-15T01:50:34.477Z,31.44
2023-02-15T01:51:34.517Z,30.46
2023-02-15T01:52:33.595Z,29.52
2023-02-15T01:53:34.629Z,31.67
2023-02-15T01:54:33.715Z,27.76
2023-02-15T01:55:34.771Z,30.73
2023-02-15T01:56:34.816Z,32.01
2023-02-15T01:57:34.959Z,28.85
2023-02-15T01:58:34.957Z,31.95
2023-02-15T01:59:33.970Z,31.18
2023-02-15T02:00:35.032Z,27.35
2023-02-15T02:01:34.175Z,30.14
2023-02-15T02:02:35.217Z,33.38
2023-02-15T02:03:35.204Z,32.26
2023-02-15T02:04:35.254Z,27.88
2023-02-15T02:05:35.319Z,33.15
2023-02-15T02:06:35.392Z,30.45
2023-02-15T02:07:35.414Z,27.93
2023-02-15T02:08:34.478Z,28.93
2023-02-15T02:09:35.543Z,29.18
2023-02-15T02:10:35.598Z,32.20
2023-02-15T02:11:35.692Z,30.97
2023-02-15T02:12:35.708Z,31.60
2023-02-15T02:13:34.755Z,31.57
2023-02-15T02:14:35.830Z,28.64
2023-02-15T02:15:35.996Z,28.83
2023-02-15T02:16:34.958Z,28.62
2023-02-15T02:17:34.998Z,29.64
2023-02-15T02:18:36.068Z,25.90
2023-02-15T02:19:36.150Z,27.61
2023-02-15T02:20:36.303Z,30.47
2023-02-15T02:21:36.228Z,30.21
2023-02-15T02:22:36.316Z,30.94
2023-02-15T02:23:35.359Z,26.52
2023-02-15T02:24:36.421Z,32.14
2023-02-15T02:25:36.580Z,32.94
2023-02-15T02:26:36.554Z,30.95
2023-02-15T02:27:35.601Z,32.96
2023-02-15T02:28:36.758Z,29.23
2023-02-15T02:29:36.727Z,33.19
2023-02-15T02:30:36.942Z,30.71
2023-02-15T02:31:36.975Z,30.49
2023-02-15T02:32:36.943Z,34.59
2023-02-15T02:33:36.983Z,33.25
2023-02-15T02:34:37.041Z,26.47
2023-02-15T02:35:37.120Z,30.97
2023-02-15T02:36:37.161Z,30.98
2023-02-15T02:37:36.210Z,31.82
2023-02-15T02:38:37.325Z,32.85
2023-02-15T02:39:37.340Z,28.22
2023-02-15T02:40:36.403Z,31.00
2023-02-15T02:41:36.510Z,32.18
2023-02-15T02:42:37.539Z,29.78
2023-02-15T02:43:36.579Z,32.27
2023-02-15T02:44:37.651Z,31.85
2023-02-15T02:45:37.702Z,34.13
2023-02-15T02:46:36.796Z,31.17
2023-02-15T02:47:37.821Z,31.81
2023-02-15T02:48:37.877Z,34.62
2023-02-15T02:49:36.935Z,34.43
2023-02-15T02:50:38.001Z,29.78
2023-02-15T02:51:37.053Z,28.38
2023-02-15T02:52:37.094Z,31.91
2023-02-15T02:53:38.175Z,32.56
2023-02-15T02:54:38.242Z,35.06
2023-02-15T02:55:38.278Z,34.20
2023-02-15T02:56:38.350Z,29.52
2023-02-15T02:57:38.393Z,34.15
2023-02-15T02:58:37.453Z,28.24
2023-02-15T02:59:37.506Z,30.68
2023-02-15T03:00:37.558Z,31.48
2023-02-15T03:01:38.685Z,29.98
2023-02-15T03:02:38.762Z,30.08
2023-02-15T03:03:37.734Z,33.88
2023-02-15T03:04:38.777Z,31.60
2023-02-15T03:05:37.828Z,28.27
2023-02-15T03:06:38.903Z,34.44
2023-02-15T03:07:38.966Z,32.14
2023-02-15T03:08:39.019Z,30.86
2023-02-15T03:09:39.074Z,32.28
2023-02-15T03:10:39.153Z,32.26
2023-02-15T03:11:39.279Z,27.10
2023-02-15T03:12:38.263Z,30.45
2023-02-15T03:13:39.328Z,30.35
2023-02-15T03:14:39.380Z,28.86
2023-02-15T03:15:39.612Z,32.26
2023-02-15T03:16:38.573Z,32.21
2023-02-15T03:17:38.569Z,29.43
2023-02-15T03:18:39.630Z,30.29
2023-02-15T03:19:39.700Z,31.09
2023-02-15T03:20:39.751Z,29.28
2023-02-15T03:21:39.827Z,29.02
2023-02-15T03:22:39.897Z,27.93
2023-02-15T03:23:39.957Z,30.56
2023-02-15T03:24:40.036Z,25.83
2023-02-15T03:25:40.081Z,28.26
2023-02-15T03:26:40.177Z,33.37
2023-02-15T03:27:40.204Z,26.45
2023-02-15T03:28:40.277Z,32.26
2023-02-15T03:29:40.347Z,28.80
2023-02-15T03:30:40.396Z,31.89
2023-02-15T03:31:40.789Z,27.86
2023-02-15T03:32:39.543Z,26.66
2023-02-15T03:33:40.583Z,29.96
2023-02-15T03:34:39.651Z,30.78
2023-02-15T03:35:39.730Z,33.14
2023-02-15T03:36:39.768Z,29.40
2023-02-15T03:37:40.839Z,30.03
2023-02-15T03:38:40.890Z,32.87
2023-02-15T03:39:39.962Z,33.24
2023-02-15T03:40:40.020Z,32.88
2023-02-15T03:41:41.121Z,32.57
2023-02-15T03:42:41.165Z,32.12
2023-02-15T03:43:41.222Z,32.39
2023-02-15T03:44:41.279Z,34.25
2023-02-15T03:45:41.378Z,30.97
2023-02-15T03:46:41.459Z,31.51
2023-02-15T03:47:41.469Z,32.47
2023-02-15T03:48:40.515Z,32.92
2023-02-15T03:49:41.567Z,31.03
2023-02-15T03:50:40.625Z,26.59
2023-02-15T03:51:40.677Z,32.22
2023-02-15T03:52:41.720Z,29.86
2023-02-15T03:53:41.768Z,30.06
2023-02-15T03:54:41.842Z,28.08
2023-02-15T03:55:41.905Z,32.35
2023-02-15T03:56:41.942Z,28.77
2023-02-15T03:57:41.978Z,31.44
2023-02-15T03:58:41.071Z,28.73
2023-02-15T03:59:41.130Z,29.61
2023-02-15T04:00:41.167Z,34.30
2023-02-15T04:01:41.275Z,33.84
2023-02-15T04:02:41.365Z,29.78
2023-02-15T04:03:42.380Z,31.49
2023-02-15T04:04:42.432Z,27.83
2023-02-15T04:05:42.496Z,32.06
2023-02-15T04:06:42.578Z,32.94
2023-02-15T04:07:42.598Z,32.15
2023-02-15T04:08:42.656Z,32.29
2023-02-15T04:09:42.705Z,31.45
2023-02-15T04:10:42.744Z,31.92
2023-02-15T04:11:42.836Z,29.07
2023-02-15T04:12:42.892Z,34.97
2023-02-15T04:13:41.905Z,32.43
2023-02-15T04:14:43.012Z,32.00
2023-02-15T04:15:43.054Z,30.35
2023-02-15T04:16:43.176Z,30.30
2023-02-15T04:17:42.093Z,30.41
2023-02-15T04:18:43.166Z,33.76
2023-02-15T04:19:43.209Z,31.07
2023-02-15T04:20:43.249Z,33.18
2023-02-15T04:21:42.309Z,33.06
2023-02-15T04:22:43.318Z,34.59
2023-02-15T04:23:42.364Z,34.58
2023-02-15T04:24:43.425Z,31.77
2023-02-15T04:25:43.432Z,31.25
2023-02-15T04:26:43.540Z,30.16
2023-02-15T04:27:43.516Z,34.13
2023-02-15T04:28:43.545Z,31.82
2023-02-15T04:29:43.596Z,32.67
2023-02-15T04:30:43.703Z,32.34
2023-02-15T04:31:42.799Z,32.26
2023-02-15T04:32:43.765Z,29.54
2023-02-15T04:33:42.897Z,28.64
2023-02-15T04:34:42.920Z,31.30
2023-02-15T04:35:43.897Z,28.69
2023-02-15T04:36:43.955Z,33.46
2023-02-15T04:37:42.992Z,30.02
2023-02-15T04:38:44.083Z,31.83
2023-02-15T04:39:44.076Z,30.13
2023-02-15T04:40:44.107Z,28.69
2023-02-15T04:41:44.160Z,34.77
2023-02-15T04:42:44.206Z,33.41
2023-02-15T04:43:43.264Z,31.00
2023-02-15T04:44:44.305Z,31.45
2023-02-15T04:45:44.384Z,30.35
2023-02-15T04:46:44.402Z,30.30
2023-02-15T04:47:43.454Z,29.96
2023-02-15T04:48:43.470Z,29.85
2023-02-15T04:49:44.509Z,32.16
2023-02-15T04:50:44.559Z,29.12
2023-02-15T04:51:43.680Z,26.04
2023-02-15T04:52:44.659Z,30.29
2023-02-15T04:53:44.701Z,30.99
2023-02-15T04:54:44.766Z,30.19
2023-02-15T04:55:44.856Z,26.94
2023-02-15T04:56:44.854Z,32.07
2023-02-15T04:57:44.929Z,29.31
2023-02-15T04:58:44.943Z,28.60
2023-02-15T04:59:44.995Z,28.31
2023-02-15T05:00:45.046Z,30.95
2023-02-15T05:01:45.010Z,30.77
2023-02-15T05:02:45.075Z,30.57
2023-02-15T05:03:45.095Z,29.05
2023-02-15T05:04:45.126Z,33.75
2023-02-15T05:05:45.100Z,30.38
2023-02-15T05:06:45.142Z,33.06
2023-02-15T05:07:45.155Z,31.78
2023-02-15T05:08:44.140Z,30.83
2023-02-15T05:09:45.206Z,30.09
2023-02-15T05:10:45.215Z,28.28
2023-02-15T05:11:44.206Z,32.76
2023-02-15T05:12:45.232Z,28.05
2023-02-15T05:13:44.232Z,29.71
2023-02-15T05:14:44.249Z,32.34
2023-02-15T05:15:45.263Z,32.36
2023-02-15T05:16:45.363Z,28.23
2023-02-15T05:17:45.293Z,30.37
2023-02-15T05:18:45.314Z,25.51
2023-02-15T05:19:45.319Z,29.27
2023-02-15T05:20:44.300Z,27.52
2023-02-15T05:21:45.314Z,29.59
2023-02-15T05:22:45.329Z,33.18
2023-02-15T05:23:45.328Z,34.54
2023-02-15T05:24:45.309Z,29.23
2023-02-15T05:25:45.319Z,26.58
2023-02-15T05:26:45.298Z,26.89
2023-02-15T05:27:45.315Z,29.92
2023-02-15T05:28:45.308Z,29.96
2023-02-15T05:29:44.304Z,28.69
2023-02-15T05:30:45.550Z,26.90
2023-02-15T05:31:45.782Z,28.61
2023-02-15T05:32:44.533Z,28.46
2023-02-15T05:33:45.399Z,31.10
2023-02-15T05:34:45.482Z,28.08
2023-02-15T05:35:45.477Z,28.42
2023-02-15T05:36:45.507Z,29.28
2023-02-15T05:37:45.557Z,30.57
2023-02-15T05:38:45.597Z,29.60
2023-02-15T05:39:45.667Z,27.79
2023-02-15T05:40:44.669Z,26.85
2023-02-15T05:41:45.719Z,29.13
2023-02-15T05:42:45.708Z,27.45
2023-02-15T05:43:45.756Z,27.37
2023-02-15T05:44:44.766Z,28.67
2023-02-15T05:45:44.836Z,32.71
2023-02-15T05:46:44.792Z,30.81
2023-02-15T05:47:45.838Z,28.01
2023-02-15T05:48:45.854Z,34.97
2023-02-15T05:49:44.868Z,31.87
2023-02-15T05:50:45.926Z,28.07
2023-02-15T05:51:44.922Z,30.71
2023-02-15T05:52:45.925Z,32.08
2023-02-15T05:53:45.973Z,32.26
2023-02-15T05:54:44.976Z,33.27
2023-02-15T05:55:45.989Z,29.57
2023-02-15T05:56:46.993Z,32.67
2023-02-15T05:57:46.036Z,30.20
2023-02-15T05:58:46.061Z,27.86
2023-02-15T05:59:46.089Z,28.88
2023-02-15T06:00:46.082Z,26.23
2023-02-15T06:01:46.062Z,27.50
2023-02-15T06:02:46.198Z,30.25
2023-02-15T06:03:46.370Z,31.38
2023-02-15T06:04:46.111Z,32.05
2023-02-15T06:05:45.147Z,32.39
2023-02-15T06:06:45.181Z,33.06
2023-02-15T06:07:46.153Z,27.90
2023-02-15T06:08:46.160Z,28.81
2023-02-15T06:09:46.161Z,29.14
2023-02-15T06:10:46.171Z,27.09
2023-02-15T06:11:45.179Z,30.43
2023-02-15T06:12:45.163Z,27.96
2023-02-15T06:13:46.187Z,34.79
2023-02-15T06:14:45.168Z,29.69
2023-02-15T06:15:45.235Z,33.85
2023-02-15T06:16:46.210Z,30.27
2023-02-15T06:17:46.201Z,28.34
2023-02-15T06:18:45.224Z,28.91
2023-02-15T06:19:46.236Z,31.80
2023-02-15T06:20:46.248Z,31.73
2023-02-15T06:21:46.241Z,32.39
2023-02-15T06:22:46.270Z,29.92
2023-02-15T06:23:46.267Z,29.14
2023-02-15T06:24:46.260Z,28.93
2023-02-15T06:25:46.276Z,29.02
2023-02-15T06:26:46.291Z,29.63
2023-02-15T06:27:45.304Z,29.54
2023-02-15T06:28:46.337Z,31.81
2023-02-15T06:29:46.288Z,31.15
2023-02-15T06:30:46.319Z,30.73
2023-02-15T06:31:46.372Z,28.18
2023-02-15T06:32:46.328Z,30.66
2023-02-15T06:33:46.323Z,32.63
2023-02-15T06:34:48.027Z,29.88
2023-02-15T06:35:46.262Z,29.65
2023-02-15T06:36:46.256Z,30.45
2023-02-15T06:37:46.263Z,31.07
2023-02-15T06:38:46.290Z,31.37
2023-02-15T06:39:46.937Z,28.10
2023-02-15T06:40:46.244Z,29.10
2023-02-15T06:41:46.247Z,30.75
2023-02-15T06:42:45.235Z,31.35
2023-02-15T06:43:46.224Z,29.58
2023-02-15T06:44:46.212Z,34.34
2023-02-15T06:45:46.199Z,27.30
2023-02-15T06:46:46.273Z,28.53
2023-02-15T06:47:45.186Z,32.91
2023-02-15T06:48:46.181Z,33.83
2023-02-15T06:49:46.172Z,29.56
2023-02-15T06:50:46.196Z,29.99
2023-02-15T06:51:46.166Z,29.89
2023-02-15T06:52:45.152Z,32.49
2023-02-15T06:53:46.155Z,33.31
2023-02-15T06:54:45.156Z,29.02
2023-02-15T06:55:46.115Z,30.95
2023-02-15T06:56:45.121Z,28.37
2023-02-15T06:57:45.118Z,30.33
2023-02-15T06:58:46.124Z,29.11
2023-02-15T06:59:46.105Z,30.28
2023-02-15T07:00:45.087Z,30.39
2023-02-15T07:01:46.191Z,31.28
2023-02-15T07:02:46.089Z,32.45
2023-02-15T07:03:46.085Z,27.78
2023-02-15T07:04:46.100Z,30.06
2023-02-15T07:05:46.089Z,31.88
2023-02-15T07:06:46.037Z,31.91
2023-02-15T07:07:46.050Z,29.47
2023-02-15T07:08:46.060Z,31.42
2023-02-15T07:09:46.041Z,29.77
2023-02-15T07:10:45.050Z,29.26
2023-02-15T07:11:46.034Z,28.66
2023-02-15T07:12:46.006Z,29.28
2023-02-15T07:13:46.013Z,33.36
2023-02-15T07:14:45.980Z,31.32
2023-02-15T07:15:46.102Z,29.28
2023-02-15T07:16:44.975Z,29.87
2023-02-15T07:17:44.961Z,30.13
2023-02-15T07:18:45.962Z,26.40
2023-02-15T07:19:45.959Z,28.56
2023-02-15T07:20:45.936Z,27.59
2023-02-15T07:21:45.941Z,29.66
2023-02-15T07:22:46.029Z,30.57
2023-02-15T07:23:44.920Z,27.76
2023-02-15T07:24:45.916Z,31.35
2023-02-15T07:25:45.911Z,30.14
2023-02-15T07:26:45.933Z,34.54
2023-02-15T07:27:46.078Z,26.81
2023-02-15T07:28:45.889Z,28.72
2023-02-15T07:29:45.888Z,28.85
2023-02-15T07:30:45.963Z,25.35
2023-02-15T07:31:44.889Z,31.94
2023-02-15T07:32:45.914Z,31.76
2023-02-15T07:33:45.848Z,32.61
2023-02-15T07:34:45.837Z,29.36
2023-02-15T07:35:45.836Z,30.12
2023-02-15T07:36:45.843Z,28.08
2023-02-15T07:37:44.823Z,27.28
2023-02-15T07:38:44.821Z,28.45
2023-02-15T07:39:45.833Z,29.73
2023-02-15T07:40:45.801Z,31.34
2023-02-15T07:41:44.836Z,32.89
2023-02-15T07:42:44.849Z,33.37
2023-02-15T07:43:44.798Z,27.47
2023-02-15T07:44:45.810Z,33.50
2023-02-15T07:45:45.841Z,29.08
2023-02-15T07:46:45.916Z,25.18
2023-02-15T07:47:45.893Z,27.04
2023-02-15T07:48:45.865Z,33.09
2023-02-15T07:49:45.862Z,30.73
2023-02-15T07:50:45.876Z,28.61
2023-02-15T07:51:45.904Z,28.31
2023-02-15T07:52:45.989Z,30.89
2023-02-15T07:53:46.026Z,27.27
2023-02-15T07:54:45.094Z,28.22
2023-02-15T07:55:46.159Z,28.35
2023-02-15T07:56:46.247Z,28.24
2023-02-15T07:57:46.306Z,30.36
2023-02-15T07:58:46.427Z,30.45
2023-02-15T07:59:46.440Z,28.79
2023-02-15T08:00:46.476Z,29.48
2023-02-15T08:01:46.544Z,28.80
2023-02-15T08:02:46.661Z,27.88
2023-02-15T08:03:46.721Z,31.40
2023-02-15T08:04:46.748Z,27.05
2023-02-15T08:05:46.792Z,25.55
2023-02-15T08:06:46.907Z,26.35
2023-02-15T08:07:46.948Z,28.65
2023-02-15T08:08:45.997Z,28.65
2023-02-15T08:09:47.098Z,29.93
2023-02-15T08:10:47.104Z,28.92
2023-02-15T08:11:46.160Z,29.95
2023-02-15T08:12:47.207Z,29.69
2023-02-15T08:13:47.283Z,28.23
2023-02-15T08:14:47.447Z,28.44
2023-02-15T08:15:47.399Z,26.64
2023-02-15T08:16:47.538Z,28.82
2023-02-15T08:17:47.528Z,27.78
2023-02-15T08:18:47.593Z,29.26
2023-02-15T08:19:46.636Z,28.42
2023-02-15T08:20:47.689Z,26.71
2023-02-15T08:21:46.732Z,26.93
2023-02-15T08:22:46.781Z,28.98
2023-02-15T08:23:47.857Z,26.60
2023-02-15T08:24:47.912Z,25.77
2023-02-15T08:25:47.982Z,29.13
2023-02-15T08:26:47.001Z,29.90
2023-02-15T08:27:48.060Z,30.32
2023-02-15T08:28:48.121Z,31.42
2023-02-15T08:29:47.169Z,31.48
2023-02-15T08:30:48.237Z,33.77
2023-02-15T08:31:47.369Z,30.83
2023-02-15T08:32:47.307Z,34.74
2023-02-15T08:33:48.345Z,32.28
2023-02-15T08:34:48.381Z,32.31
2023-02-15T08:35:47.423Z,32.37
2023-02-15T08:36:48.472Z,28.41
2023-02-15T08:37:48.513Z,34.14
2023-02-15T08:38:48.559Z,30.15
2023-02-15T08:39:47.571Z,33.12
2023-02-15T08:40:48.629Z,27.89
2023-02-15T08:41:47.676Z,31.07
2023-02-15T08:42:48.671Z,31.70
2023-02-15T08:43:48.710Z,32.03
2023-02-15T08:44:50.354Z,32.38
2023-02-15T08:45:47.955Z,30.35
2023-02-15T08:46:48.990Z,30.72
2023-02-15T08:47:48.978Z,30.44
2023-02-15T08:48:49.053Z,32.15
2023-02-15T08:49:49.033Z,34.98
2023-02-15T08:50:49.090Z,33.04
2023-02-15T08:51:49.068Z,33.99
2023-02-15T08:52:49.103Z,32.88
2023-02-15T08:53:49.137Z,37.03
2023-02-15T08:54:49.158Z,33.86
2023-02-15T08:55:49.195Z,32.07
2023-02-15T08:56:49.213Z,33.39
2023-02-15T08:57:49.222Z,32.64
2023-02-15T08:58:49.209Z,32.82
2023-02-15T08:59:49.271Z,36.35
2023-02-15T09:00:49.313Z,39.16
2023-02-15T09:01:49.440Z,36.76
2023-02-15T09:02:49.313Z,37.94
2023-02-15T09:03:48.307Z,36.53
2023-02-15T09:04:49.363Z,35.86
2023-02-15T09:05:49.344Z,35.55
2023-02-15T09:06:49.263Z,36.34
2023-02-15T09:07:48.382Z,39.55
2023-02-15T09:08:49.390Z,40.76
2023-02-15T09:09:48.408Z,37.31
2023-02-15T09:10:49.489Z,39.87
2023-02-15T09:11:50.017Z,36.84
2023-02-15T09:12:48.433Z,38.88
2023-02-15T09:13:49.433Z,39.45
2023-02-15T09:14:49.427Z,39.87
2023-02-15T09:15:49.439Z,37.21
2023-02-15T09:16:49.668Z,39.52
2023-02-15T09:17:48.440Z,39.23
2023-02-15T09:18:48.418Z,43.47
2023-02-15T09:19:49.381Z,38.90
2023-02-15T09:20:48.441Z,36.06
2023-02-15T09:21:49.387Z,38.51
2023-02-15T09:22:49.375Z,38.74
2023-02-15T09:23:49.359Z,43.67
2023-02-15T09:24:48.353Z,40.99
2023-02-15T09:25:49.382Z,35.90
2023-02-15T09:26:49.475Z,39.23
2023-02-15T09:27:49.358Z,38.55
2023-02-15T09:28:49.369Z,37.94
2023-02-15T09:29:49.389Z,39.72
2023-02-15T09:30:49.377Z,39.96
2023-02-15T09:31:48.349Z,41.10
2023-02-15T09:32:48.319Z,38.15
2023-02-15T09:33:49.293Z,38.06
2023-02-15T09:34:49.333Z,37.60
2023-02-15T09:35:48.311Z,38.66
2023-02-15T09:36:48.276Z,39.42
2023-02-15T09:37:48.269Z,41.24
2023-02-15T09:38:49.268Z,38.60
2023-02-15T09:39:49.322Z,37.95
2023-02-15T09:40:49.263Z,39.45
2023-02-15T09:41:49.296Z,40.43
2023-02-15T09:42:49.231Z,37.99
2023-02-15T09:43:49.227Z,38.42
2023-02-15T09:44:49.220Z,41.47
2023-02-15T09:45:49.245Z,40.82
2023-02-15T09:46:48.203Z,41.49
2023-02-15T09:47:49.209Z,41.70
2023-02-15T09:48:48.189Z,37.99
2023-02-15T09:49:49.173Z,40.16
2023-02-15T09:50:49.230Z,41.52
2023-02-15T09:51:49.167Z,39.99
2023-02-15T09:52:49.163Z,38.49
2023-02-15T09:53:48.158Z,39.84
2023-02-15T09:54:48.149Z,39.26
2023-02-15T09:55:48.160Z,41.36
2023-02-15T09:56:49.164Z,37.27
2023-02-15T09:57:49.145Z,39.07
2023-02-15T09:58:49.132Z,39.50
2023-02-15T09:59:49.127Z,42.77
2023-02-15T10:00:48.123Z,40.06
2023-02-15T10:01:49.171Z,41.70
2023-02-15T10:02:49.116Z,39.16
2023-02-15T10:03:49.101Z,41.90
2023-02-15T10:04:48.108Z,38.39
2023-02-15T10:05:49.076Z,41.29
2023-02-15T10:06:48.093Z,39.99
2023-02-15T10:07:49.068Z,39.77
2023-02-15T10:08:49.075Z,43.57
2023-02-15T10:09:49.136Z,41.91
2023-02-15T10:10:48.054Z,39.21
2023-02-15T10:11:49.030Z,40.94
2023-02-15T10:12:48.026Z,39.59
2023-02-15T10:13:49.018Z,41.05
2023-02-15T10:14:48.030Z,42.31
2023-02-15T10:15:49.002Z,37.67
2023-02-15T10:16:49.046Z,41.18
2023-02-15T10:17:48.004Z,39.92
2023-02-15T10:18:48.026Z,41.55
2023-02-15T10:19:48.991Z,38.14
2023-02-15T10:20:48.979Z,45.06
2023-02-15T10:21:47.971Z,40.81
2023-02-15T10:22:48.991Z,41.72
2023-02-15T10:23:48.982Z,41.65
2023-02-15T10:24:49.210Z,45.63
2023-02-15T10:25:47.952Z,40.60
2023-02-15T10:26:48.986Z,39.27
2023-02-15T10:27:48.947Z,41.21
2023-02-15T10:28:47.950Z,42.19
2023-02-15T10:29:47.936Z,44.29
2023-02-15T10:30:47.990Z,40.07
2023-02-15T10:31:48.092Z,44.17
2023-02-15T10:32:48.909Z,39.56
2023-02-15T10:33:48.911Z,41.86
2023-02-15T10:34:48.896Z,45.50
2023-02-15T10:35:47.913Z,41.04
2023-02-15T10:36:48.879Z,44.17
2023-02-15T10:37:48.992Z,43.38
2023-02-15T10:38:48.901Z,44.55
2023-02-15T10:39:48.889Z,42.84
2023-02-15T10:40:47.892Z,44.04
2023-02-15T10:41:48.886Z,42.47
2023-02-15T10:42:47.886Z,43.40
2023-02-15T10:43:48.912Z,44.29
2023-02-15T10:44:48.888Z,40.76
2023-02-15T10:45:48.945Z,42.84
2023-02-15T10:46:48.903Z,43.53
2023-02-15T10:47:48.911Z,41.82
2023-02-15T10:48:48.919Z,37.74
2023-02-15T10:49:48.910Z,40.47
2023-02-15T10:50:47.913Z,40.90
2023-02-15T10:51:48.977Z,43.44
2023-02-15T10:52:48.915Z,45.16
2023-02-15T10:53:47.935Z,41.38
2023-02-15T10:54:47.968Z,46.19
2023-02-15T10:55:48.900Z,41.68
2023-02-15T10:56:48.906Z,40.93
2023-02-15T10:57:48.910Z,43.13
2023-02-15T10:58:48.943Z,40.74
2023-02-15T10:59:47.942Z,41.58
2023-02-15T11:00:48.921Z,45.91
2023-02-15T11:01:49.018Z,43.35
2023-02-15T11:02:48.947Z,42.66
2023-02-15T11:03:48.925Z,43.11
2023-02-15T11:04:49.025Z,39.97
2023-02-15T11:05:49.024Z,39.90
2023-02-15T11:06:48.969Z,39.53
2023-02-15T11:07:49.007Z,44.35
2023-02-15T11:08:49.048Z,45.74
2023-02-15T11:09:49.054Z,43.88
2023-02-15T11:10:49.131Z,43.22
2023-02-15T11:11:49.111Z,39.33
2023-02-15T11:12:49.214Z,40.79
2023-02-15T11:13:48.185Z,42.22
2023-02-15T11:14:49.225Z,45.55
2023-02-15T11:15:49.328Z,40.25
2023-02-15T11:16:48.286Z,40.55
2023-02-15T11:17:49.319Z,40.41
2023-02-15T11:18:48.498Z,42.50
2023-02-15T11:19:49.364Z,43.66
2023-02-15T11:20:49.429Z,43.59
2023-02-15T11:21:49.454Z,40.80
2023-02-15T11:22:49.503Z,42.08
2023-02-15T11:23:49.627Z,42.62
2023-02-15T11:24:49.636Z,40.43
2023-02-15T11:25:48.650Z,42.88
2023-02-15T11:26:48.783Z,45.24
2023-02-15T11:27:49.731Z,43.92
2023-02-15T11:28:48.774Z,37.36
2023-02-15T11:29:50.043Z,42.18
2023-02-15T11:30:48.997Z,42.31
2023-02-15T11:31:49.249Z,41.09
2023-02-15T11:32:50.022Z,46.74
2023-02-15T11:33:49.089Z,42.70
2023-02-15T11:34:50.112Z,44.06
2023-02-15T11:35:50.163Z,45.19
2023-02-15T11:36:50.252Z,45.36
2023-02-15T11:37:50.277Z,46.98
2023-02-15T11:38:50.351Z,43.83
2023-02-15T11:39:50.416Z,43.25
2023-02-15T11:40:50.715Z,45.69
2023-02-15T11:41:49.578Z,43.22
2023-02-15T11:42:50.789Z,45.51
2023-02-15T11:43:50.735Z,43.41
2023-02-15T11:44:49.830Z,40.74
2023-02-15T11:45:50.682Z,45.16
2023-02-15T11:46:50.774Z,40.53
2023-02-15T11:47:50.983Z,45.10
2023-02-15T11:48:51.032Z,40.27
2023-02-15T11:49:50.898Z,41.87
2023-02-15T11:50:50.879Z,43.70
2023-02-15T11:51:50.919Z,44.21
2023-02-15T11:52:51.303Z,39.93
2023-02-15T11:53:50.088Z,44.65
2023-02-15T11:54:51.219Z,40.77
2023-02-15T11:55:51.108Z,45.21
2023-02-15T11:56:51.128Z,43.36
2023-02-15T11:57:51.220Z,38.85
2023-02-15T11:58:50.507Z,43.49
2023-02-15T11:59:51.531Z,40.03
2023-02-15T12:00:51.390Z,42.08
2023-02-15T12:01:50.451Z,43.51
2023-02-15T12:02:51.573Z,41.50
2023-02-15T12:03:51.699Z,45.69
2023-02-15T12:04:50.635Z,45.41
2023-02-15T12:05:51.681Z,45.82
2023-02-15T12:06:51.751Z,44.15
2023-02-15T12:07:51.817Z,37.66
2023-02-15T12:08:51.859Z,40.34
2023-02-15T12:09:50.960Z,42.35
2023-02-15T12:10:50.974Z,41.72
2023-02-15T12:11:52.069Z,38.33
2023-02-15T12:12:51.105Z,41.57
2023-02-15T12:13:51.164Z,41.35
2023-02-15T12:14:52.275Z,42.68
2023-02-15T12:15:52.420Z,42.30
2023-02-15T12:16:52.354Z,41.02
2023-02-15T12:17:51.400Z,40.95
2023-02-15T12:18:52.449Z,41.87
2023-02-15T12:19:52.526Z,41.22
2023-02-15T12:20:52.566Z,39.27
2023-02-15T12:21:51.637Z,39.49
2023-02-15T12:22:52.708Z,41.51
2023-02-15T12:23:52.749Z,38.94
2023-02-15T12:24:52.810Z,38.47
2023-02-15T12:25:52.855Z,40.26
2023-02-15T12:26:52.931Z,40.91
2023-02-15T12:27:52.980Z,42.29
2023-02-15T12:28:53.057Z,40.97
2023-02-15T12:29:53.220Z,43.47
2023-02-15T12:30:53.271Z,43.13
2023-02-15T12:31:53.305Z,40.07
2023-02-15T12:32:53.254Z,43.52
2023-02-15T12:33:53.363Z,37.96
2023-02-15T12:34:53.424Z,41.23
2023-02-15T12:35:53.424Z,40.03
2023-02-15T12:36:53.491Z,40.80
2023-02-15T12:37:53.530Z,43.00
2023-02-15T12:38:59.496Z,39.59
2023-02-15T12:39:53.646Z,39.83
2023-02-15T12:40:52.605Z,40.84
2023-02-15T12:41:52.585Z,40.37
2023-02-15T12:42:53.582Z,38.83
2023-02-15T12:43:53.574Z,39.72
2023-02-15T12:44:53.562Z,40.92
2023-02-15T12:45:53.596Z,37.05
2023-02-15T12:46:53.653Z,39.81
2023-02-15T12:47:52.547Z,40.37
2023-02-15T12:48:52.531Z,41.04
2023-02-15T12:49:53.525Z,37.01
2023-02-15T12:50:55.765Z,36.01
2023-02-15T12:51:53.810Z,36.26
2023-02-15T12:52:53.606Z,37.27